Meerah North, Australia

8:23 PM AEST on September 21, 2017 (GMT +1000)
Appletrees Narrabri | | Change Station

Elev 650 ft 30.13 °S, 149.57 °E | Updated 26 seconds ago

Clear
Clear
58.8 °F
Feels Like 58.8 °F
N
0.0
Wind Variable Wind from SSE
Gusts 0.0 mph

Today
High -- | Low -- °F
--% Chance of Precip.
Yesterday
High -- | Low -- °F
Precip. -- in
Pressure 29.95 in
Visibility 6.2 miles
Clouds
Dew Point 31 °F
Humidity 34%
Rainfall 0.00 in
Snow Depth Not available.
5:54 AM 5:58 PM
New Moon, 2% visible
METAR YMOR 210900Z AUTO 14006KT 9999 // NCD 19/M01 Q1014
Pressure 29.95 in
Visibility 6.2 miles
Clouds
Dew Point 31 °F
Humidity 34%
Rainfall 0.00 in
Snow Depth Not available.
5:54 AM 5:58 PM
New Moon, 2% visible
METAR YMOR 210900Z AUTO 14006KT 9999 // NCD 19/M01 Q1014

Get Severe Weather Alerts

Thanks for signing up!

Be on the lookout for a verification email in your inbox.

You'll start receiving the daily forecast at 6 AM.

×

10-Day Weather Forecast

×

Almanac

Astronomy

Sep. 21, 2017 Rise Set
Actual Time
Civil Twilight
Nautical Twilight
Astronomical Twilight
Moon
Length of Visible Light
Length of Day
Tomorrow will be .
, % of the Moon is Illuminated

Today's Extremes

Country Highs Country Lows

Community

WunderPhotos

Category 6

Welcome to Category 6. This is the collective home for Weather Underground's featured writeups by Dr. Jeff Masters (right), Bob Henson (left), Chris Burt, and other regular contributors.

Nearby

Air Quality

  Air Quality AQ Index Pollutant
Not available.

Snow Depth

Station Depth Elevation

Earthquake Activity

City Distance Mag. Time & Date
Minimum magnitude displayed is 2.5.

Coastal Water Temperatures

Place Temperature

Stations

Nearby Weather Stations

Station Location Temp. Windchill Dew Point Humidity Wind Precip. Elev Updated Type